Time;durP1;ratioP1;P1;durP2;ratioP2;P2;SDS_P1;SDS_P2;PMS_P1;PMS_P2;Temp;Humidity;BMP_temperature;BMP_pressure;BME280_temperature;BME280_humidity;BME280_pressure;Samples;Min_cycle;Max_cycle;Signal;HPM_P1;HPM_P2
2021/05/22 00:00:33;;;;;;;15.63;3.58;;;;;;;10.14;73.70;99909.66;5001319;28;20354;-73
2021/05/22 00:03:01;;;;;;;13.52;3.28;;;;;;;10.01;74.64;99899.56;4995525;28;20066;-72
2021/05/22 00:05:28;;;;;;;25.55;4.05;;;;;;;9.98;74.86;99907.66;5001232;28;20083;-74
2021/05/22 00:07:56;;;;;;;17.55;2.95;;;;;;;10.02;74.62;99895.94;4996919;28;20068;-73
2021/05/22 00:10:24;;;;;;;16.30;3.40;;;;;;;10.09;73.04;99900.03;5001908;28;20065;-73
2021/05/22 00:12:52;;;;;;;12.05;3.47;;;;;;;9.99;75.30;99906.72;4996730;28;20062;-73
2021/05/22 00:15:19;;;;;;;25.20;4.25;;;;;;;9.99;75.76;99900.53;5001827;28;20066;-73
2021/05/22 00:17:47;;;;;;;16.92;4.70;;;;;;;9.89;76.51;99897.41;4996731;28;20057;-72
2021/05/22 00:20:15;;;;;;;19.42;4.07;;;;;;;9.92;76.65;99905.28;4998519;28;20089;-72
2021/05/22 00:22:43;;;;;;;16.92;3.45;;;;;;;9.76;77.57;99891.75;4996516;28;20627;-71
2021/05/22 00:25:13;;;;;;;13.75;4.20;;;;;;;9.69;78.20;99901.81;5001468;28;20061;-70
2021/05/22 00:27:41;;;;;;;15.55;3.40;;;;;;;9.57;79.48;99917.44;4995071;28;20069;-71
2021/05/22 00:30:10;;;;;;;17.23;4.00;;;;;;;9.54;79.50;99915.78;5000055;28;20062;-70
2021/05/22 00:32:39;;;;;;;18.67;3.78;;;;;;;9.53;80.06;99898.97;4999629;28;20401;-69
2021/05/22 00:35:07;;;;;;;20.17;4.28;;;;;;;9.56;80.27;99905.94;4994609;28;20321;-70
2021/05/22 00:37:34;;;;;;;16.92;4.32;;;;;;;9.58;79.75;99903.22;4997118;28;20073;-70
2021/05/22 00:40:02;;;;;;;20.48;4.32;;;;;;;9.54;80.03;99894.50;4995583;28;20141;-70
2021/05/22 00:42:33;;;;;;;16.42;3.92;;;;;;;9.53;80.54;99903.41;4998285;28;20058;-71
2021/05/22 00:45:13;;;;;;;16.50;3.95;;;;;;;9.62;79.15;99895.03;4998943;28;20112;-71
2021/05/22 00:47:43;;;;;;;12.90;3.17;;;;;;;9.64;78.77;99894.97;4998771;28;20104;-72
2021/05/22 00:50:12;;;;;;;16.33;3.60;;;;;;;9.68;77.49;99894.75;4999619;28;20775;-72
2021/05/22 00:52:40;;;;;;;18.83;3.45;;;;;;;9.71;77.12;99883.97;4993453;28;20085;-71
2021/05/22 00:55:08;;;;;;;12.77;3.90;;;;;;;9.73;77.38;99883.91;4999761;28;20559;-72
2021/05/22 00:57:39;;;;;;;13.80;3.13;;;;;;;9.74;78.00;99880.31;4990009;28;20066;-72
2021/05/22 01:00:10;;;;;;;10.30;3.10;;;;;;;9.70;79.06;99879.59;4999986;28;20374;-72
2021/05/22 01:02:37;;;;;;;15.60;3.38;;;;;;;9.56;80.93;99887.28;4994721;28;20062;-70
2021/05/22 01:05:06;;;;;;;14.55;3.45;;;;;;;9.34;82.10;99882.00;4999450;28;20097;-70
2021/05/22 01:07:33;;;;;;;14.80;3.17;;;;;;;9.20;82.97;99885.25;4997372;28;20053;-69
2021/05/22 01:10:01;;;;;;;14.25;3.28;;;;;;;9.09;83.50;99896.34;5000585;28;20070;-69
2021/05/22 01:12:32;;;;;;;10.90;2.90;;;;;;;9.08;83.43;99885.78;4994943;28;20090;-70
2021/05/22 01:15:06;;;;;;;18.38;3.45;;;;;;;8.98;84.07;99886.13;5000387;28;20058;-69
2021/05/22 01:17:36;;;;;;;15.70;4.18;;;;;;;8.98;83.91;99885.28;4975866;28;626046;-69
2021/05/22 01:20:09;;;;;;;13.68;3.10;;;;;;;8.94;84.44;99871.22;5000304;28;20061;-71
2021/05/22 01:22:40;;;;;;;20.88;3.78;;;;;;;8.94;84.32;99873.91;4996358;28;20617;-69
2021/05/22 01:25:18;;;;;;;15.02;3.45;;;;;;;8.96;83.59;99868.50;5000430;28;20068;-71
2021/05/22 01:27:46;;;;;;;12.27;3.42;;;;;;;8.96;84.20;99874.69;4995858;28;20116;-69
2021/05/22 01:30:14;;;;;;;14.77;3.70;;;;;;;8.93;84.03;99873.94;5000586;28;20069;-70
2021/05/22 01:32:41;;;;;;;18.55;4.18;;;;;;;8.93;83.63;99863.31;4997391;28;20058;-69
2021/05/22 01:35:10;;;;;;;15.25;4.60;;;;;;;8.89;84.25;99853.75;5000137;28;20413;-71
2021/05/22 01:37:38;;;;;;;12.63;3.28;;;;;;;8.89;84.18;99865.22;4999495;28;20070;-70
2021/05/22 01:40:06;;;;;;;13.98;4.10;;;;;;;8.93;83.49;99861.50;4997244;28;20070;-70
2021/05/22 01:42:35;;;;;;;21.10;3.72;;;;;;;8.98;83.64;99859.53;5001068;28;20066;-70
2021/05/22 01:45:06;;;;;;;15.60;4.25;;;;;;;9.04;82.82;99853.09;4995890;28;20073;-70
2021/05/22 01:47:35;;;;;;;10.30;3.35;;;;;;;9.10;83.40;99862.63;4998542;28;20054;-70
2021/05/22 01:50:04;;;;;;;11.82;3.70;;;;;;;9.05;83.07;99849.50;4996615;28;20085;-70
2021/05/22 01:52:33;;;;;;;18.30;4.47;;;;;;;9.08;83.55;99857.34;4997957;28;20108;-70
2021/05/22 01:55:03;;;;;;;11.25;3.78;;;;;;;9.06;84.21;99850.34;4996665;28;20140;-70
2021/05/22 01:57:33;;;;;;;17.33;4.10;;;;;;;9.07;84.05;99841.44;4999169;28;20430;-70
2021/05/22 02:00:04;;;;;;;13.75;3.45;;;;;;;9.06;84.27;99850.34;4995212;28;20061;-70
2021/05/22 02:02:33;;;;;;;15.70;3.65;;;;;;;9.04;84.48;99852.22;4999926;28;20067;-70
2021/05/22 02:05:05;;;;;;;16.77;4.13;;;;;;;9.01;84.05;99839.91;4995468;28;20061;-70
2021/05/22 02:07:34;;;;;;;19.30;3.85;;;;;;;9.00;84.18;99854.13;4998238;28;20308;-70
2021/05/22 02:10:04;;;;;;;12.85;3.17;;;;;;;9.01;84.68;99847.91;4998065;28;20058;-70
2021/05/22 02:12:34;;;;;;;12.13;3.30;;;;;;;8.98;85.06;99850.69;4992730;28;20062;-70
2021/05/22 02:15:04;;;;;;;20.63;3.45;;;;;;;9.05;84.08;99848.63;4997079;28;20053;-69
2021/05/22 02:17:32;;;;;;;12.80;2.95;;;;;;;9.06;84.16;99837.03;4992139;28;20069;-69
2021/05/22 02:20:00;;;;;;;18.88;4.07;;;;;;;9.05;84.67;99832.66;4997386;28;20077;-69
2021/05/22 02:22:28;;;;;;;17.17;3.40;;;;;;;9.07;83.70;99831.66;4995913;28;20058;-69
2021/05/22 02:24:56;;;;;;;20.58;4.55;;;;;;;9.07;84.31;99839.66;4998303;28;20164;-69
2021/05/22 02:27:24;;;;;;;14.13;3.53;;;;;;;9.08;84.09;99837.88;4997578;28;20053;-70
2021/05/22 02:29:52;;;;;;;12.18;2.97;;;;;;;9.08;84.13;99838.72;4995483;28;20062;-70
2021/05/22 02:32:22;;;;;;;14.63;3.30;;;;;;;9.08;84.23;99840.53;4996428;28;20061;-70
2021/05/22 02:34:53;;;;;;;9.85;4.05;;;;;;;9.06;84.55;99847.69;4997747;28;20062;-70
2021/05/22 02:37:25;;;;;;;16.40;3.95;;;;;;;9.08;84.02;99837.88;4996792;28;20185;-70
2021/05/22 02:39:56;;;;;;;13.55;3.35;;;;;;;9.09;84.22;99834.25;4997013;28;20058;-69
2021/05/22 02:42:24;;;;;;;18.60;3.60;;;;;;;9.05;84.51;99828.22;4995487;28;20356;-69
2021/05/22 02:44:54;;;;;;;15.77;3.38;;;;;;;8.99;85.17;99817.84;4999337;28;20069;-69
2021/05/22 02:47:27;;;;;;;18.45;3.40;;;;;;;8.97;85.20;99825.00;4993089;28;20756;-69
2021/05/22 02:50:01;;;;;;;13.75;3.85;;;;;;;8.98;84.81;99829.41;4998183;28;20069;-69
2021/05/22 02:52:30;;;;;;;11.48;3.15;;;;;;;8.96;86.16;99823.28;4993546;28;20073;-69
2021/05/22 02:55:00;;;;;;;12.88;3.45;;;;;;;8.98;85.26;99838.25;4996280;28;20608;-68
2021/05/22 02:57:28;;;;;;;15.10;3.55;;;;;;;8.96;85.34;99816.16;5008246;28;20057;-69
2021/05/22 02:59:56;;;;;;;13.73;3.42;;;;;;;8.94;85.42;99831.31;4994976;28;20112;-69
2021/05/22 03:02:25;;;;;;;16.27;3.42;;;;;;;8.96;84.87;99818.81;4991803;28;20064;-69
2021/05/22 03:04:54;;;;;;;17.98;3.75;;;;;;;8.95;86.18;99821.53;4999224;28;20065;-70
2021/05/22 03:07:22;;;;;;;14.60;3.35;;;;;;;8.93;85.60;99815.41;4990419;28;20141;-69
2021/05/22 03:09:49;;;;;;;14.18;3.30;;;;;;;8.94;85.24;99799.41;4998224;28;20066;-69
2021/05/22 03:12:20;;;;;;;16.48;4.97;;;;;;;8.93;85.44;99840.22;4993560;28;20127;-69
2021/05/22 03:14:48;;;;;;;16.48;3.60;;;;;;;8.90;86.17;99819.06;4997973;28;20066;-69
2021/05/22 03:17:15;;;;;;;14.82;3.55;;;;;;;8.86;86.24;99811.28;4993257;28;20069;-69
2021/05/22 03:19:43;;;;;;;10.13;3.33;;;;;;;8.87;85.70;99813.00;4999271;28;20062;-70
2021/05/22 03:22:11;;;;;;;14.38;4.80;;;;;;;8.86;86.12;99814.81;4992449;28;20069;-68
2021/05/22 03:24:38;;;;;;;13.68;3.65;;;;;;;8.83;86.87;99804.28;4997983;28;20058;-69
2021/05/22 03:27:06;;;;;;;16.40;4.13;;;;;;;8.79;86.99;99821.31;4992712;28;20623;-70
2021/05/22 03:29:33;;;;;;;13.88;4.20;;;;;;;8.78;87.31;99832.88;4997146;28;20097;-69
2021/05/22 03:32:01;;;;;;;11.95;4.25;;;;;;;8.79;87.23;99823.97;4994688;28;20180;-69
2021/05/22 03:34:30;;;;;;;11.23;3.92;;;;;;;8.78;87.53;99819.56;4993169;28;20057;-69
2021/05/22 03:36:58;;;;;;;13.30;4.70;;;;;;;8.73;87.98;99819.75;4993953;28;20149;-69
2021/05/22 03:39:25;;;;;;;11.57;3.90;;;;;;;8.79;87.15;99821.31;4994023;28;20377;-70
2021/05/22 03:41:52;;;;;;;17.15;4.45;;;;;;;8.77;87.54;99799.25;4993792;28;20073;-69
2021/05/22 03:44:20;;;;;;;13.95;4.22;;;;;;;8.79;86.70;99816.00;4994016;28;20061;-69
2021/05/22 03:46:47;;;;;;;12.77;4.10;;;;;;;8.82;87.01;99818.53;4997025;28;20065;-69
2021/05/22 03:49:14;;;;;;;11.98;4.38;;;;;;;8.76;87.93;99827.59;4993617;28;20153;-69
2021/05/22 03:51:42;;;;;;;13.93;4.07;;;;;;;8.77;87.52;99823.19;4993634;28;20485;-69
2021/05/22 03:54:10;;;;;;;12.73;4.53;;;;;;;8.75;87.48;99825.91;4996653;28;20565;-69
2021/05/22 03:56:37;;;;;;;12.50;4.65;;;;;;;8.72;88.33;99827.81;4993733;28;20333;-69
2021/05/22 03:59:05;;;;;;;11.35;4.53;;;;;;;8.75;87.81;99831.22;4997776;28;20057;-70
2021/05/22 04:01:32;;;;;;;18.30;4.80;;;;;;;8.74;88.37;99829.47;4991628;28;20088;-69
2021/05/22 04:03:59;;;;;;;11.95;3.85;;;;;;;8.74;88.87;99839.25;4999594;28;20492;-69
2021/05/22 04:06:26;;;;;;;13.55;4.90;;;;;;;8.68;89.17;99834.16;4996403;28;20088;-68
2021/05/22 04:08:54;;;;;;;12.82;4.72;;;;;;;8.68;89.30;99845.66;4997661;28;20055;-69
2021/05/22 04:11:22;;;;;;;13.15;4.78;;;;;;;8.72;89.67;99841.13;4994880;28;20304;-69
2021/05/22 04:13:49;;;;;;;20.27;6.47;;;;;;;8.71;89.48;99842.88;5001093;28;20050;-68
2021/05/22 04:16:16;;;;;;;16.48;6.05;;;;;;;8.78;89.25;99847.06;5000791;28;20066;-69
2021/05/22 04:18:44;;;;;;;11.18;5.70;;;;;;;8.78;89.89;99851.50;4998327;28;20252;-69
2021/05/22 04:21:11;;;;;;;14.32;7.10;;;;;;;8.81;89.99;99850.50;4998874;28;20073;-70
2021/05/22 04:23:40;;;;;;;21.17;10.45;;;;;;;8.77;90.59;99866.59;4997615;28;20409;-71
2021/05/22 04:26:07;;;;;;;19.92;9.43;;;;;;;8.77;90.61;99863.06;4996747;28;20061;-70
2021/05/22 04:28:35;;;;;;;17.77;10.10;;;;;;;8.81;90.63;99853.19;4995007;28;20086;-69
2021/05/22 04:31:03;;;;;;;16.92;8.45;;;;;;;8.82;90.66;99873.50;4999128;28;20069;-70
2021/05/22 04:33:30;;;;;;;23.35;12.05;;;;;;;8.79;90.48;99862.06;4997877;28;20062;-69
2021/05/22 04:35:58;;;;;;;26.13;11.68;;;;;;;8.78;90.67;99857.69;5000169;28;20050;-70
2021/05/22 04:38:25;;;;;;;19.42;11.02;;;;;;;8.81;91.24;99869.13;4997255;28;20062;-69
2021/05/22 04:40:52;;;;;;;20.80;10.93;;;;;;;8.81;91.34;99877.13;5000072;28;20070;-69
2021/05/22 04:43:20;;;;;;;17.52;11.10;;;;;;;8.84;90.71;99882.31;4997029;28;20460;-68
2021/05/22 04:45:48;;;;;;;25.63;12.02;;;;;;;8.84;90.73;99869.03;4999017;28;20065;-69
2021/05/22 04:48:17;;;;;;;24.77;12.93;;;;;;;8.84;91.08;99877.84;4999423;28;20081;-70
2021/05/22 04:50:44;;;;;;;25.35;14.38;;;;;;;8.86;91.26;99881.31;4996460;28;20519;-71
2021/05/22 04:53:11;;;;;;;22.98;12.90;;;;;;;8.89;90.83;99881.19;4999542;28;20058;-70
2021/05/22 04:55:39;;;;;;;19.33;11.65;;;;;;;8.87;91.43;99883.06;4996188;28;20153;-69
2021/05/22 04:58:10;;;;;;;18.30;11.23;;;;;;;8.87;91.34;99892.81;4997864;28;20066;-70
2021/05/22 05:00:37;;;;;;;19.83;8.60;;;;;;;8.83;92.07;99893.88;4995261;28;20054;-71
2021/05/22 05:03:06;;;;;;;21.63;8.93;;;;;;;8.84;92.47;99895.63;4997367;28;20058;-70
2021/05/22 05:05:33;;;;;;;19.88;9.18;;;;;;;8.87;91.79;99888.38;4995555;28;20105;-69
2021/05/22 05:08:01;;;;;;;14.45;8.05;;;;;;;8.85;92.37;99895.53;5000405;28;20141;-70
2021/05/22 05:10:29;;;;;;;22.20;8.52;;;;;;;8.88;92.27;99889.25;4996398;28;20066;-70
2021/05/22 05:12:56;;;;;;;17.33;7.72;;;;;;;8.87;92.56;99896.34;4999174;28;20062;-70
2021/05/22 05:15:23;;;;;;;19.25;7.40;;;;;;;8.86;92.38;99891.94;4997952;28;20088;-70
2021/05/22 05:17:50;;;;;;;21.60;7.03;;;;;;;8.91;92.34;99897.97;4999062;28;20062;-70
2021/05/22 05:20:19;;;;;;;12.85;7.18;;;;;;;8.89;92.46;99897.16;4998753;28;20072;-70
2021/05/22 05:22:50;;;;;;;17.85;7.75;;;;;;;8.94;92.33;99899.66;5017128;28;20062;-70
2021/05/22 05:25:18;;;;;;;16.92;9.55;;;;;;;8.93;92.25;99898.75;4997650;28;20460;-69
2021/05/22 05:27:45;;;;;;;22.83;9.93;;;;;;;8.97;91.58;99896.84;4997486;28;20065;-70
2021/05/22 05:30:13;;;;;;;22.63;10.38;;;;;;;9.01;91.83;99905.56;4997729;28;20108;-70
2021/05/22 05:32:41;;;;;;;19.92;10.30;;;;;;;9.04;92.37;99906.31;4998501;28;20061;-69
2021/05/22 05:35:09;;;;;;;20.17;10.85;;;;;;;9.04;92.43;99911.66;5000209;28;20057;-70
2021/05/22 05:37:38;;;;;;;23.98;11.32;;;;;;;9.14;92.46;99907.69;4998246;28;20061;-70
2021/05/22 05:40:07;;;;;;;22.80;9.32;;;;;;;9.16;92.31;99920.94;4997788;28;20061;-72
2021/05/22 05:42:35;;;;;;;17.85;8.30;;;;;;;9.17;92.36;99919.97;4997952;28;20525;-70
2021/05/22 05:45:03;;;;;;;18.75;8.57;;;;;;;9.26;92.27;99919.63;4998232;28;20295;-70
2021/05/22 05:47:30;;;;;;;18.92;8.07;;;;;;;9.25;92.47;99933.00;4996073;28;20065;-70
2021/05/22 05:49:58;;;;;;;13.73;7.60;;;;;;;9.30;92.53;99926.53;4997254;28;20543;-69
2021/05/22 05:52:25;;;;;;;15.82;7.95;;;;;;;9.28;92.49;99936.41;4995593;28;20500;-70
2021/05/22 05:54:53;;;;;;;19.63;7.72;;;;;;;9.28;92.39;99930.19;4993061;28;20089;-69
2021/05/22 05:57:21;;;;;;;20.08;8.18;;;;;;;9.31;92.39;99935.38;4994977;28;20057;-69
2021/05/22 05:59:48;;;;;;;17.63;6.55;;;;;;;9.42;91.49;99935.81;4993396;28;20064;-70
2021/05/22 06:02:15;;;;;;;14.18;6.20;;;;;;;9.40;91.63;99935.03;4997835;28;20073;-70
2021/05/22 06:04:42;;;;;;;14.57;5.97;;;;;;;9.46;91.31;99947.19;4996235;28;20089;-70
2021/05/22 06:07:10;;;;;;;17.77;6.40;;;;;;;9.50;91.70;99941.69;4999946;28;20084;-69
2021/05/22 06:09:37;;;;;;;14.52;6.03;;;;;;;9.51;92.31;99942.56;4994454;28;20219;-71
2021/05/22 06:12:07;;;;;;;19.05;6.15;;;;;;;9.52;92.81;99947.81;4999574;28;20108;-69
2021/05/22 06:14:36;;;;;;;16.60;5.05;;;;;;;9.58;91.76;99948.50;4995708;28;20104;-71
2021/05/22 06:17:04;;;;;;;15.35;4.97;;;;;;;9.62;91.87;99955.41;4995479;28;20499;-69
2021/05/22 06:19:32;;;;;;;18.10;4.97;;;;;;;9.62;91.42;99955.41;4997834;28;20733;-70
2021/05/22 06:21:59;;;;;;;12.30;4.47;;;;;;;9.68;91.23;99963.16;4996331;28;20069;-70
2021/05/22 06:24:27;;;;;;;21.23;5.57;;;;;;;9.68;91.73;99958.69;4997243;28;20640;-71
2021/05/22 06:26:56;;;;;;;17.15;5.20;;;;;;;9.73;91.79;99961.16;4999350;28;20053;-69
2021/05/22 06:29:25;;;;;;;17.25;4.53;;;;;;;9.70;91.61;99953.28;4995285;28;20467;-70
2021/05/22 06:31:52;;;;;;;13.88;4.10;;;;;;;9.75;91.11;99956.63;4994746;28;20081;-68
2021/05/22 06:34:19;;;;;;;17.05;4.80;;;;;;;9.70;91.72;99962.16;4996379;28;20068;-70
2021/05/22 06:36:47;;;;;;;20.98;5.05;;;;;;;9.72;91.67;99965.63;4994038;28;20085;-70
2021/05/22 06:39:14;;;;;;;16.08;5.45;;;;;;;9.75;91.33;99963.75;4994342;28;20061;-70
2021/05/22 06:41:42;;;;;;;15.90;4.97;;;;;;;9.69;91.90;99967.56;4997281;28;20062;-69
2021/05/22 06:44:13;;;;;;;23.30;5.50;;;;;;;9.69;92.67;99971.09;4995307;28;20341;-69
2021/05/22 06:46:47;;;;;;;19.60;5.72;;;;;;;9.70;92.98;99980.81;4995220;28;20143;-69
2021/05/22 06:49:15;;;;;;;;;;;;;;;9.76;92.39;99978.81;4995837;28;20514;-69
2021/05/22 06:51:42;;;;;;;18.17;3.70;;;;;;;9.69;92.18;99981.75;4999268;28;19975;-69
2021/05/22 06:54:10;;;;;;;14.63;3.88;;;;;;;9.68;92.32;99981.78;4993573;28;20066;-69
2021/05/22 06:56:37;;;;;;;15.75;4.63;;;;;;;9.73;92.83;99982.47;4995680;28;20065;-70
2021/05/22 06:59:05;;;;;;;19.75;4.15;;;;;;;9.72;92.64;99983.38;4992582;28;20144;-71
2021/05/22 07:01:32;;;;;;;10.73;3.97;;;;;;;9.72;93.09;99991.38;4998048;28;20440;-69
2021/05/22 07:04:00;;;;;;;13.90;4.63;;;;;;;9.72;92.74;99986.94;4994924;28;20062;-71
2021/05/22 07:06:27;;;;;;;11.82;4.20;;;;;;;9.70;92.21;99987.91;4998338;28;20065;-70
2021/05/22 07:08:55;;;;;;;9.95;4.28;;;;;;;9.71;93.10;100003.00;4993330;28;20147;-71
2021/05/22 07:11:23;;;;;;;10.98;3.75;;;;;;;9.68;93.21;99997.78;4996073;28;20061;-70
2021/05/22 07:13:51;;;;;;;13.10;3.72;;;;;;;9.72;93.16;100010.03;4995029;28;20073;-69
2021/05/22 07:16:18;;;;;;;18.17;4.03;;;;;;;9.75;93.78;100015.22;4998921;28;20065;-69
2021/05/22 07:18:46;;;;;;;10.80;4.20;;;;;;;9.82;93.25;100024.69;4996124;28;20066;-70
2021/05/22 07:21:15;;;;;;;12.15;4.35;;;;;;;9.84;92.75;100017.53;4997964;28;20070;-70
2021/05/22 07:23:43;;;;;;;17.13;4.22;;;;;;;9.85;92.53;100024.56;4994645;28;20373;-71
2021/05/22 07:26:10;;;;;;;15.27;4.38;;;;;;;9.91;92.70;100031.47;4996809;28;20069;-69
2021/05/22 07:28:38;;;;;;;10.63;3.75;;;;;;;9.92;92.95;100030.50;4996724;28;20062;-70
2021/05/22 07:31:05;;;;;;;13.60;3.85;;;;;;;9.98;93.13;100040.06;4995834;28;20237;-69
2021/05/22 07:33:36;;;;;;;12.98;3.72;;;;;;;10.01;93.28;100042.59;4997441;28;20065;-70
2021/05/22 07:36:04;;;;;;;15.00;3.55;;;;;;;10.06;92.85;100048.59;4994355;28;20069;-70
2021/05/22 07:38:32;;;;;;;13.45;3.95;;;;;;;10.03;92.57;100051.41;4998897;28;20058;-70
2021/05/22 07:40:59;;;;;;;14.02;4.25;;;;;;;10.05;92.97;100049.53;4996701;28;20116;-69
2021/05/22 07:43:27;;;;;;;10.93;3.55;;;;;;;10.14;93.33;100050.94;4999211;28;20144;-70
2021/05/22 07:45:57;;;;;;;14.60;4.50;;;;;;;10.10;92.34;100048.41;4997065;28;20065;-69
2021/05/22 07:48:25;;;;;;;13.32;4.60;;;;;;;10.22;92.85;100051.47;5002612;28;20061;-68
2021/05/22 07:50:53;;;;;;;12.85;3.80;;;;;;;10.24;92.13;100062.94;5002513;28;20058;-69
2021/05/22 07:53:20;;;;;;;17.92;5.20;;;;;;;10.35;92.47;100059.84;4998772;28;20083;-69
2021/05/22 07:55:49;;;;;;;17.10;4.22;;;;;;;10.44;92.27;100070.13;4998669;28;20421;-69
2021/05/22 07:58:16;;;;;;;12.27;3.53;;;;;;;10.35;91.24;100076.72;4997929;28;20057;-69
2021/05/22 08:00:43;;;;;;;18.65;4.47;;;;;;;10.42;92.00;100070.19;4999365;28;20064;-69
2021/05/22 08:03:11;;;;;;;12.98;4.80;;;;;;;10.48;92.03;100078.84;5000663;28;20309;-69
2021/05/22 08:05:39;;;;;;;12.50;4.40;;;;;;;10.53;91.50;100082.19;5003449;28;20065;-69
2021/05/22 08:08:06;;;;;;;12.85;4.05;;;;;;;10.54;91.13;100086.56;4999727;28;20161;-70
2021/05/22 08:10:33;;;;;;;8.85;3.83;;;;;;;10.58;91.52;100086.38;5000548;28;20073;-69
2021/05/22 08:13:03;;;;;;;12.55;3.55;;;;;;;10.65;91.81;100087.81;4996741;28;20338;-69
2021/05/22 08:15:31;;;;;;;13.10;3.50;;;;;;;10.80;91.94;100088.94;4998567;28;20348;-69
2021/05/22 08:17:58;;;;;;;11.32;3.53;;;;;;;10.91;91.44;100093.78;4997204;28;20069;-69
2021/05/22 08:20:25;;;;;;;13.02;4.10;;;;;;;10.99;91.11;100094.31;4998345;28;20066;-70
2021/05/22 08:22:53;;;;;;;9.05;2.90;;;;;;;10.87;90.03;100097.53;5001337;28;20053;-69
2021/05/22 08:25:20;;;;;;;7.97;3.30;;;;;;;11.02;90.75;100098.66;4996964;28;20242;-70
2021/05/22 08:27:50;;;;;;;8.80;3.05;;;;;;;11.03;90.50;100108.38;5000955;28;20137;-69
2021/05/22 08:30:19;;;;;;;9.13;3.00;;;;;;;11.11;90.77;100121.41;4998558;28;20061;-69
2021/05/22 08:32:48;;;;;;;9.35;3.63;;;;;;;11.09;91.02;100108.13;4999927;28;20608;-70
2021/05/22 08:35:15;;;;;;;7.65;3.40;;;;;;;11.14;90.58;100102.56;4996967;28;20520;-70
2021/05/22 08:37:43;;;;;;;7.35;3.33;;;;;;;11.10;90.12;100107.19;4999882;28;20374;-69
2021/05/22 08:40:11;;;;;;;9.63;3.60;;;;;;;11.11;90.76;100116.91;4997421;28;20054;-69
2021/05/22 08:42:38;;;;;;;7.90;3.25;;;;;;;11.13;90.22;100122.19;4996163;28;20476;-69
2021/05/22 08:45:10;;;;;;;8.63;3.60;;;;;;;11.06;89.81;100128.75;4995394;28;20065;-69
2021/05/22 08:47:40;;;;;;;8.15;3.35;;;;;;;11.09;90.10;100131.28;5000635;28;20101;-69
2021/05/22 08:50:09;;;;;;;7.03;3.42;;;;;;;11.07;91.02;100131.34;5000308;28;20062;-70
2021/05/22 08:52:37;;;;;;;10.27;4.68;;;;;;;11.06;90.13;100134.94;4992280;28;20053;-70
2021/05/22 08:55:06;;;;;;;14.55;4.65;;;;;;;11.03;90.50;100148.44;5000641;28;20065;-69
2021/05/22 08:57:33;;;;;;;9.65;4.70;;;;;;;10.87;90.04;100155.41;4996265;28;20069;-69
2021/05/22 09:00:02;;;;;;;10.63;4.30;;;;;;;10.89;90.70;100149.06;5000534;28;20161;-69
2021/05/22 09:02:29;;;;;;;11.23;5.03;;;;;;;10.69;89.67;100154.41;4994449;28;20070;-70
2021/05/22 09:05:19;;;;;;;11.55;4.78;;;;;;;10.70;90.44;100153.47;5001612;28;20445;-69
2021/05/22 09:07:48;;;;;;;11.35;5.28;;;;;;;10.82;90.75;100161.78;4994800;28;20152;-69
2021/05/22 09:10:20;;;;;;;12.32;5.47;;;;;;;10.93;90.84;100166.69;5000661;28;20077;-69
2021/05/22 09:12:49;;;;;;;12.85;5.63;;;;;;;10.93;91.17;100173.81;4995784;28;20066;-70
2021/05/22 09:15:18;;;;;;;12.30;5.50;;;;;;;10.89;89.97;100170.41;5000232;28;20057;-69
2021/05/22 09:17:51;;;;;;;12.43;6.00;;;;;;;10.95;91.51;100170.16;4995510;28;20069;-69
2021/05/22 09:20:23;;;;;;;21.15;6.07;;;;;;;11.07;89.79;100173.19;4998098;28;20441;-69
2021/05/22 09:22:59;;;;;;;16.77;7.35;;;;;;;10.99;90.64;100190.41;4996463;28;20061;-69
2021/05/22 09:25:28;;;;;;;10.73;4.38;;;;;;;10.68;89.36;100195.38;4998801;28;20064;-69
2021/05/22 09:27:56;;;;;;;7.07;3.42;;;;;;;10.58;89.91;100202.88;4995143;28;20580;-69
2021/05/22 09:30:25;;;;;;;8.23;3.22;;;;;;;10.29;89.17;100216.47;4995900;28;20077;-69
2021/05/22 09:32:55;;;;;;;6.10;2.80;;;;;;;10.14;89.54;100230.41;4995109;28;20058;-68
2021/05/22 09:35:24;;;;;;;8.45;3.33;;;;;;;10.17;89.50;100238.28;4938043;28;20061;-70
2021/05/22 09:37:54;;;;;;;7.95;3.05;;;;;;;10.06;88.63;100245.84;4881122;28;20233;-70
2021/05/22 09:40:24;;;;;;;9.15;3.35;;;;;;;10.06;90.40;100243.16;4997261;28;20062;-69
2021/05/22 09:42:53;;;;;;;6.72;3.40;;;;;;;9.82;88.74;100255.66;4997693;28;20382;-69
2021/05/22 09:45:34;;;;;;;10.60;3.47;;;;;;;9.92;89.47;100254.38;5000749;28;20162;-69
2021/05/22 09:48:11;;;;;;;8.13;3.65;;;;;;;10.14;90.58;100257.06;4996056;28;20054;-69
2021/05/22 09:50:40;;;;;;;8.35;3.53;;;;;;;10.03;89.19;100275.31;4996388;28;20073;-69
2021/05/22 09:53:29;;;;;;;8.57;4.10;;;;;;;10.21;88.69;100276.34;5010857;28;20062;-70
2021/05/22 09:56:11;;;;;;;7.35;4.22;;;;;;;10.39;88.62;100281.00;5000771;28;20066;-69
2021/05/22 09:58:39;;;;;;;11.65;4.88;;;;;;;10.67;90.13;100277.19;4997218;28;20344;-68
2021/05/22 10:01:07;;;;;;;12.13;4.82;;;;;;;10.58;87.87;100289.13;5000517;28;20277;-69
2021/05/22 10:03:35;;;;;;;11.93;5.10;;;;;;;10.77;88.60;100285.69;4996741;28;20108;-70
2021/05/22 10:06:03;;;;;;;7.82;4.10;;;;;;;10.60;87.72;100294.41;5000973;28;20070;-71
2021/05/22 10:08:31;;;;;;;10.25;4.80;;;;;;;10.51;88.89;100306.31;4998328;28;20201;-70
2021/05/22 10:10:58;;;;;;;10.35;4.15;;;;;;;10.12;86.39;100311.38;5000220;28;20057;-69
2021/05/22 10:13:26;;;;;;;10.60;4.47;;;;;;;10.22;87.91;100324.28;4996155;28;20390;-70
2021/05/22 10:15:56;;;;;;;8.43;4.82;;;;;;;10.04;87.19;100331.19;4997150;28;20149;-70
2021/05/22 10:18:26;;;;;;;8.82;4.70;;;;;;;10.14;88.70;100341.53;4999832;28;20066;-71
2021/05/22 10:20:55;;;;;;;9.35;4.72;;;;;;;9.99;87.59;100338.50;4998315;28;20085;-70
2021/05/22 10:23:24;;;;;;;9.18;5.30;;;;;;;10.10;88.60;100341.63;4996446;28;20070;-70
2021/05/22 10:25:52;;;;;;;9.38;5.15;;;;;;;10.15;87.68;100344.13;4997844;28;20089;-69
2021/05/22 10:28:20;;;;;;;11.57;5.82;;;;;;;10.32;87.84;100359.50;5001635;28;20065;-70
2021/05/22 10:30:47;;;;;;;11.88;5.30;;;;;;;10.10;86.44;100349.63;4994431;28;20547;-69
2021/05/22 10:33:16;;;;;;;10.68;4.85;;;;;;;10.19;87.43;100371.53;4997769;28;20903;-70
2021/05/22 10:35:47;;;;;;;12.55;5.90;;;;;;;10.28;88.84;100380.06;4996488;28;20054;-70
2021/05/22 10:38:41;;;;;;;16.00;6.07;;;;;;;10.44;89.10;100385.72;5000238;28;20091;-70
2021/05/22 10:41:12;;;;;;;9.90;4.82;;;;;;;10.09;85.14;100381.69;4998389;28;20429;-69
2021/05/22 10:43:50;;;;;;;11.55;5.40;;;;;;;9.94;86.77;100387.56;4998658;28;20069;-70
2021/05/22 10:46:18;;;;;;;12.90;5.75;;;;;;;10.03;86.93;100393.44;4994046;28;20061;-71
2021/05/22 10:48:51;;;;;;;16.00;6.43;;;;;;;10.08;86.47;100402.13;4998866;28;20061;-69
2021/05/22 10:51:25;;;;;;;11.03;6.10;;;;;;;10.25;86.65;100401.50;4992600;28;20228;-69
2021/05/22 10:53:57;;;;;;;18.17;7.15;;;;;;;10.55;86.67;100408.44;4997689;28;20072;-69
2021/05/22 10:56:26;;;;;;;14.00;6.05;;;;;;;10.64;85.80;100411.63;4997014;28;20096;-68
2021/05/22 10:59:13;;;;;;;11.45;6.10;;;;;;;10.58;85.08;100419.84;4997721;28;20057;-69
2021/05/22 11:01:45;;;;;;;14.25;6.78;;;;;;;10.80;86.22;100427.88;4990559;28;20187;-68
2021/05/22 11:04:36;;;;;;;11.10;6.45;;;;;;;10.70;83.13;100421.16;4996504;28;20108;-69
2021/05/22 11:07:21;;;;;;;13.85;6.38;;;;;;;10.83;84.22;100429.56;4992073;28;20523;-68
2021/05/22 11:09:51;;;;;;;;;;;;;;;10.69;84.61;100437.22;4998901;28;20061;-69
2021/05/22 11:12:41;;;;;;;14.50;6.15;;;;;;;10.50;83.60;100442.41;4995638;28;19960;-68
2021/05/22 11:15:37;;;;;;;11.32;6.30;;;;;;;10.44;84.32;100448.84;4992919;28;20062;-68
2021/05/22 11:18:05;;;;;;;12.38;6.03;;;;;;;10.49;82.69;100460.22;4992608;28;20085;-69
2021/05/22 11:20:32;;;;;;;15.02;6.32;;;;;;;10.41;82.14;100463.16;5003854;28;20054;-69
2021/05/22 11:23:02;;;;;;;16.25;6.45;;;;;;;10.35;83.33;100466.09;4998357;28;20089;-68
2021/05/22 11:25:52;;;;;;;21.15;7.93;;;;;;;10.42;83.55;100466.69;5006825;28;20058;-68
2021/05/22 11:28:22;;;;;;;12.48;6.88;;;;;;;10.32;81.90;100470.63;5002506;28;20198;-71
2021/05/22 11:30:56;;;;;;;15.65;7.43;;;;;;;10.52;81.48;100481.47;4999932;28;20061;-70
2021/05/22 11:33:31;;;;;;;13.70;6.22;;;;;;;10.76;82.57;100482.31;5001519;28;20492;-70
2021/05/22 11:36:14;;;;;;;10.85;6.35;;;;;;;10.77;80.89;100485.84;4999613;28;20163;-71
2021/05/22 11:38:47;;;;;;;12.80;6.55;;;;;;;11.06;82.38;100497.19;4999948;28;20057;-71